createdAt,value
2022-09-17T00:01:31.474Z,96895.28
2022-09-17T00:04:04.738Z,96893.50
2022-09-17T00:06:36.465Z,96894.44
2022-09-17T00:09:05.915Z,96898.69
2022-09-17T00:11:36.475Z,96903.91
2022-09-17T00:14:07.140Z,96904.75
2022-09-17T00:16:37.770Z,96897.97
2022-09-17T00:19:08.308Z,96890.94
2022-09-17T00:21:38.171Z,96896.00
2022-09-17T00:24:07.667Z,96882.97
2022-09-17T00:26:36.826Z,96880.31
2022-09-17T00:29:05.817Z,96875.19
2022-09-17T00:31:34.554Z,96871.06
2022-09-17T00:34:04.008Z,96870.28
2022-09-17T00:36:32.237Z,96874.50
2022-09-17T00:39:01.966Z,96872.66
2022-09-17T00:41:32.089Z,96864.84
2022-09-17T00:44:01.636Z,96850.94
2022-09-17T00:46:33.687Z,96852.72
2022-09-17T00:49:03.381Z,96857.91
2022-09-17T00:51:38.798Z,96858.03
2022-09-17T00:54:11.764Z,96850.13
2022-09-17T00:56:41.744Z,96838.94
2022-09-17T00:59:10.005Z,96837.16
2022-09-17T01:01:39.062Z,96834.56
2022-09-17T01:04:07.404Z,96833.63
2022-09-17T01:06:38.769Z,96836.25
2022-09-17T01:09:18.745Z,96823.38
2022-09-17T01:12:04.216Z,96832.19
2022-09-17T01:14:44.004Z,96842.56
2022-09-17T01:17:18.513Z,96842.63
2022-09-17T01:20:16.678Z,96841.66
2022-09-17T01:22:55.437Z,96829.53
2022-09-17T01:25:26.280Z,96826.88
2022-09-17T01:28:14.802Z,96832.66
2022-09-17T01:31:22.369Z,96835.31
2022-09-17T01:33:57.840Z,96829.38
2022-09-17T01:36:36.831Z,96818.03
2022-09-17T01:39:07.815Z,96812.75
2022-09-17T01:41:44.602Z,96816.09
2022-09-17T01:44:16.705Z,96817.78
2022-09-17T01:46:49.995Z,96804.84
2022-09-17T01:49:18.408Z,96807.47
2022-09-17T01:51:48.682Z,96798.75
2022-09-17T01:54:21.372Z,96796.22
2022-09-17T01:56:53.325Z,96800.53
2022-09-17T01:59:23.617Z,96803.13
2022-09-17T02:01:55.355Z,96817.88
2022-09-17T02:04:28.154Z,96823.34
2022-09-17T02:07:01.643Z,96831.06
2022-09-17T02:09:33.294Z,96830.38
2022-09-17T02:12:03.987Z,96828.69
2022-09-17T02:14:36.454Z,96829.53
2022-09-17T02:17:12.610Z,96840.97
2022-09-17T02:19:41.770Z,96847.06
2022-09-17T02:22:18.273Z,96833.25
2022-09-17T02:24:49.966Z,96821.22
2022-09-17T02:27:22.357Z,96810.78
2022-09-17T02:29:50.524Z,96814.34
2022-09-17T02:32:20.026Z,96811.75
2022-09-17T02:34:48.671Z,96815.19
2022-09-17T02:37:16.836Z,96806.44
2022-09-17T02:39:45.238Z,96811.56
2022-09-17T02:42:23.702Z,96799.50
2022-09-17T02:45:01.385Z,96807.28
2022-09-17T02:48:08.165Z,96802.06
2022-09-17T02:51:02.813Z,96797.75
2022-09-17T02:53:38.222Z,96787.31
2022-09-17T02:56:15.469Z,96776.88
2022-09-17T02:58:48.377Z,96775.94
2022-09-17T03:01:30.269Z,96774.97
2022-09-17T03:04:00.128Z,96774.13
2022-09-17T03:06:29.878Z,96756.00
2022-09-17T03:08:58.257Z,96758.56
2022-09-17T03:11:26.454Z,96772.28
2022-09-17T03:13:54.831Z,96756.81
2022-09-17T03:16:23.089Z,96760.34
2022-09-17T03:18:51.354Z,96764.59
2022-09-17T03:21:19.538Z,96769.69
2022-09-17T03:23:49.245Z,96767.88
2022-09-17T03:26:17.420Z,96758.34
2022-09-17T03:28:45.563Z,96769.56
2022-09-17T03:31:13.782Z,96772.34
2022-09-17T03:33:41.939Z,96775.81
2022-09-17T03:36:10.182Z,96779.44
2022-09-17T03:38:38.673Z,96780.25
2022-09-17T03:41:08.518Z,96777.56
2022-09-17T03:43:36.745Z,96774.25
2022-09-17T03:46:05.108Z,96775.19
2022-09-17T03:48:37.133Z,96775.13
2022-09-17T03:51:05.725Z,96771.78
2022-09-17T03:53:33.858Z,96773.44
2022-09-17T03:56:02.766Z,96776.88
2022-09-17T03:58:33.044Z,96783.81
2022-09-17T04:01:04.746Z,96785.56
2022-09-17T04:03:33.396Z,96787.16
2022-09-17T04:06:01.776Z,96788.69
2022-09-17T04:08:30.033Z,96787.03
2022-09-17T04:10:58.213Z,96790.50
2022-09-17T04:13:26.385Z,96786.91
2022-09-17T04:15:55.997Z,96771.47
2022-09-17T04:18:24.567Z,96753.22
2022-09-17T04:20:53.501Z,96746.97
2022-09-17T04:23:21.739Z,96749.50
2022-09-17T04:25:49.990Z,96744.94
2022-09-17T04:28:20.735Z,96737.59
2022-09-17T04:30:49.317Z,96739.16
2022-09-17T04:33:19.730Z,96746.31
2022-09-17T04:35:48.147Z,96755.81
2022-09-17T04:38:18.665Z,96778.44
2022-09-17T04:40:47.568Z,96764.09
2022-09-17T04:43:16.107Z,96739.91
2022-09-17T04:45:47.251Z,96766.28
2022-09-17T04:48:15.643Z,96792.31
2022-09-17T04:50:45.241Z,96794.19
2022-09-17T04:53:13.689Z,96796.56
2022-09-17T04:55:41.868Z,96776.47
2022-09-17T04:58:10.102Z,96771.59
2022-09-17T05:00:38.725Z,96775.19
2022-09-17T05:03:06.881Z,96789.78
2022-09-17T05:05:35.236Z,96793.22
2022-09-17T05:08:05.126Z,96779.63
2022-09-17T05:10:33.243Z,96774.38
2022-09-17T05:13:01.592Z,96759.88
2022-09-17T05:15:29.784Z,96744.22
2022-09-17T05:17:58.911Z,96746.72
2022-09-17T05:20:27.034Z,96742.91
2022-09-17T05:22:56.043Z,96732.94
2022-09-17T05:25:25.607Z,96753.03
2022-09-17T05:27:54.848Z,96743.69
2022-09-17T05:30:23.298Z,96761.84
2022-09-17T05:33:00.023Z,96770.16
2022-09-17T05:35:28.530Z,96758.28
2022-09-17T05:38:00.945Z,96742.91
2022-09-17T05:40:31.470Z,96741.06
2022-09-17T05:43:00.380Z,96742.41
2022-09-17T05:45:28.688Z,96767.72
2022-09-17T05:47:57.693Z,96764.28
2022-09-17T05:50:26.372Z,96768.50
2022-09-17T05:52:55.023Z,96771.28
2022-09-17T05:55:24.531Z,96782.56
2022-09-17T05:57:54.158Z,96772.94
2022-09-17T06:00:22.717Z,96773.84
2022-09-17T06:02:56.150Z,96774.03
2022-09-17T06:05:24.493Z,96778.22
2022-09-17T06:07:52.777Z,96763.09
2022-09-17T06:10:21.006Z,96762.03
2022-09-17T06:12:49.421Z,96755.34
2022-09-17T06:15:19.420Z,96756.34
2022-09-17T06:17:47.787Z,96764.09
2022-09-17T06:20:16.849Z,96758.13
2022-09-17T06:22:44.986Z,96756.41
2022-09-17T06:25:13.336Z,96759.00
2022-09-17T06:27:41.565Z,96758.09
2022-09-17T06:30:10.201Z,96775.28
2022-09-17T06:32:39.823Z,96770.06
2022-09-17T06:35:09.360Z,96772.63
2022-09-17T06:37:40.339Z,96763.88
2022-09-17T06:40:10.147Z,96777.41
2022-09-17T06:42:38.336Z,96778.56
2022-09-17T06:45:11.058Z,96779.56
2022-09-17T06:47:42.874Z,96793.84
2022-09-17T06:50:11.374Z,96802.72
2022-09-17T06:52:39.745Z,96808.81
2022-09-17T06:55:08.515Z,96817.38
2022-09-17T06:57:36.675Z,96806.91
2022-09-17T07:00:05.596Z,96807.56
2022-09-17T07:02:33.859Z,96801.09
2022-09-17T07:05:04.875Z,96791.13
2022-09-17T07:07:35.046Z,96789.38
2022-09-17T07:10:03.436Z,96791.94
2022-09-17T07:12:31.549Z,96796.13
2022-09-17T07:14:59.702Z,96794.38
2022-09-17T07:17:30.532Z,96791.25
2022-09-17T07:19:59.338Z,96782.81
2022-09-17T07:22:29.527Z,96788.88
2022-09-17T07:24:57.866Z,96795.38
2022-09-17T07:27:28.706Z,96804.91
2022-09-17T07:29:57.132Z,96799.53
2022-09-17T07:32:25.764Z,96805.50
2022-09-17T07:34:53.978Z,96815.53
2022-09-17T07:37:22.959Z,96820.53
2022-09-17T07:39:52.794Z,96825.66
2022-09-17T07:42:21.349Z,96823.91
2022-09-17T07:44:49.946Z,96827.75
2022-09-17T07:47:18.182Z,96837.78
2022-09-17T07:49:46.630Z,96829.44
2022-09-17T07:52:15.160Z,96818.56
2022-09-17T07:54:44.195Z,96815.81
2022-09-17T07:57:14.347Z,96811.66
2022-09-17T07:59:42.578Z,96814.72
2022-09-17T08:02:14.284Z,96817.31
2022-09-17T08:04:44.043Z,96807.72
2022-09-17T08:07:14.354Z,96813.53
2022-09-17T08:09:43.269Z,96813.22
2022-09-17T08:12:11.700Z,96821.16
2022-09-17T08:14:42.000Z,96816.94
2022-09-17T08:17:10.597Z,96818.94
2022-09-17T08:19:39.184Z,96822.00
2022-09-17T08:22:07.818Z,96831.34
2022-09-17T08:24:36.400Z,96847.53
2022-09-17T08:27:05.704Z,96855.47
2022-09-17T08:29:35.345Z,96877.72
2022-09-17T08:32:05.458Z,96886.88
2022-09-17T08:34:34.193Z,96884.94
2022-09-17T08:37:03.159Z,96888.31
2022-09-17T08:39:31.489Z,96894.63
2022-09-17T08:42:09.526Z,96904.16
2022-09-17T08:44:41.653Z,96893.03
2022-09-17T08:47:15.427Z,96866.84
2022-09-17T08:49:49.938Z,96842.00
2022-09-17T08:52:41.358Z,96819.13
2022-09-17T08:55:21.105Z,96813.19
2022-09-17T08:57:53.858Z,96806.25
2022-09-17T09:00:22.984Z,96814.88
2022-09-17T09:03:02.791Z,96816.78
2022-09-17T09:05:33.816Z,96828.09
2022-09-17T09:08:04.692Z,96827.31
2022-09-17T09:10:38.039Z,96835.00
2022-09-17T09:13:06.543Z,96837.81
2022-09-17T09:15:39.112Z,96823.22
2022-09-17T09:18:17.658Z,96834.19
2022-09-17T09:20:51.762Z,96827.94
2022-09-17T09:23:22.079Z,96844.59
2022-09-17T09:25:56.369Z,96843.91
2022-09-17T09:28:36.513Z,96852.09
2022-09-17T09:31:12.837Z,96845.78
2022-09-17T09:33:47.887Z,96843.78
2022-09-17T09:36:21.815Z,96836.66
2022-09-17T09:38:56.727Z,96832.09
2022-09-17T09:41:30.175Z,96819.97
2022-09-17T09:44:04.858Z,96808.31
2022-09-17T09:46:49.488Z,96799.69
2022-09-17T09:49:26.823Z,96780.13
2022-09-17T09:52:04.781Z,96789.94
2022-09-17T09:54:45.771Z,96777.66
2022-09-17T09:57:15.721Z,96766.16
2022-09-17T09:59:44.146Z,96758.19
2022-09-17T10:02:13.278Z,96755.47
2022-09-17T10:04:43.086Z,96755.63
2022-09-17T10:07:12.470Z,96750.53
2022-09-17T10:09:46.456Z,96726.94
2022-09-17T10:12:19.139Z,96726.00
2022-09-17T10:14:47.874Z,96716.81
2022-09-17T10:17:19.413Z,96709.28
2022-09-17T10:20:13.803Z,96703.50
2022-09-17T10:22:44.286Z,96686.38
2022-09-17T10:25:29.797Z,96671.97
2022-09-17T10:27:58.916Z,96675.19
2022-09-17T10:30:27.573Z,96675.19
2022-09-17T10:33:18.507Z,96676.72
2022-09-17T10:36:01.326Z,96697.25
2022-09-17T10:38:34.844Z,96712.91
2022-09-17T10:41:15.430Z,96704.47
2022-09-17T10:43:44.044Z,96701.69
2022-09-17T10:46:17.205Z,96700.56
2022-09-17T10:48:48.312Z,96698.16
2022-09-17T10:51:25.939Z,96696.44
2022-09-17T10:54:24.186Z,96686.16
2022-09-17T10:56:55.860Z,96681.94
2022-09-17T10:59:44.037Z,96686.91
2022-09-17T11:02:37.345Z,96692.78
2022-09-17T11:05:17.632Z,96694.63
2022-09-17T11:07:49.447Z,96690.69
2022-09-17T11:10:23.529Z,96673.06
2022-09-17T11:13:06.716Z,96674.19
2022-09-17T11:15:44.082Z,96658.03
2022-09-17T11:18:32.640Z,96661.66
2022-09-17T11:21:15.324Z,96667.94
2022-09-17T11:23:57.911Z,96645.50
2022-09-17T11:26:32.456Z,96660.53
2022-09-17T11:29:09.604Z,96666.06
2022-09-17T11:31:42.193Z,96662.38
2022-09-17T11:34:33.004Z,96674.00
2022-09-17T11:37:06.268Z,96676.72
2022-09-17T11:39:42.919Z,96673.56
2022-09-17T11:42:15.988Z,96665.91
2022-09-17T11:44:50.127Z,96642.00
2022-09-17T11:47:21.990Z,96623.72
2022-09-17T11:49:53.368Z,96587.06
2022-09-17T11:52:24.225Z,96587.00
2022-09-17T11:54:57.932Z,96587.34
2022-09-17T11:57:29.025Z,96585.16
2022-09-17T12:00:01.824Z,96589.81
2022-09-17T12:02:47.623Z,96594.66
2022-09-17T12:05:18.666Z,96588.47
2022-09-17T12:07:51.467Z,96579.75
2022-09-17T12:10:38.680Z,96568.94
2022-09-17T12:13:15.973Z,96572.78
2022-09-17T12:15:52.350Z,96578.16
2022-09-17T12:18:32.570Z,96584.47
2022-09-17T12:21:04.625Z,96592.81
2022-09-17T12:23:38.844Z,96592.69
2022-09-17T12:26:17.451Z,96582.41
2022-09-17T12:28:52.381Z,96605.03
2022-09-17T12:31:25.893Z,96601.88
2022-09-17T12:33:56.935Z,96600.47
2022-09-17T12:36:38.720Z,96585.88
2022-09-17T12:39:45.938Z,96577.47
2022-09-17T12:42:33.053Z,96565.63
2022-09-17T12:45:15.653Z,96545.28
2022-09-17T12:48:01.437Z,96552.88
2022-09-17T12:50:38.820Z,96567.38
2022-09-17T12:53:22.688Z,96591.56
2022-09-17T12:56:04.045Z,96606.22
2022-09-17T12:58:45.168Z,96629.75
2022-09-17T13:01:20.898Z,96624.28
2022-09-17T13:03:52.060Z,96621.25
2022-09-17T13:06:45.948Z,96614.66
2022-09-17T13:09:32.772Z,96626.88
2022-09-17T13:12:28.685Z,96621.56
2022-09-17T13:15:25.239Z,96618.75
2022-09-17T13:18:12.954Z,96608.34
2022-09-17T13:20:56.642Z,96617.03
2022-09-17T13:23:34.258Z,96631.38
2022-09-17T13:26:05.463Z,96621.41
2022-09-17T13:28:46.729Z,96619.75
2022-09-17T13:31:22.734Z,96630.78
2022-09-17T13:33:59.116Z,96649.44
2022-09-17T13:36:40.133Z,96646.56
2022-09-17T13:39:10.865Z,96662.75
2022-09-17T13:41:41.275Z,96653.81
2022-09-17T13:44:12.618Z,96665.28
2022-09-17T13:46:42.387Z,96655.34
2022-09-17T13:49:15.835Z,96652.53
2022-09-17T13:51:52.577Z,96631.38
2022-09-17T13:54:22.833Z,96632.88
2022-09-17T13:57:05.148Z,96623.16
2022-09-17T13:59:36.259Z,96620.56
2022-09-17T14:02:32.406Z,96620.66
2022-09-17T14:05:40.273Z,96609.06
2022-09-17T14:08:30.606Z,96601.50
2022-09-17T14:11:03.919Z,96594.59
2022-09-17T14:13:44.759Z,96590.41
2022-09-17T14:16:47.237Z,96588.91
2022-09-17T14:19:30.741Z,96580.59
2022-09-17T14:22:01.785Z,96582.06
2022-09-17T14:24:36.677Z,96576.50
2022-09-17T14:27:14.698Z,96577.34
2022-09-17T14:30:03.847Z,96574.75
2022-09-17T14:32:37.641Z,96564.53
2022-09-17T14:35:20.219Z,96564.09
2022-09-17T14:37:54.709Z,96563.06
2022-09-17T14:40:24.097Z,96550.28
2022-09-17T14:42:55.804Z,96559.00
2022-09-17T14:45:29.222Z,96558.19
2022-09-17T14:48:28.554Z,96561.50
2022-09-17T14:51:26.577Z,96556.78
2022-09-17T14:54:17.563Z,96555.19
2022-09-17T14:56:54.372Z,96553.59
2022-09-17T14:59:27.886Z,96557.41
2022-09-17T15:01:56.159Z,96565.03
2022-09-17T15:04:26.257Z,96562.06
2022-09-17T15:07:08.577Z,96569.75
2022-09-17T15:09:36.937Z,96569.88
2022-09-17T15:12:06.058Z,96577.66
2022-09-17T15:14:36.170Z,96574.44
2022-09-17T15:17:05.346Z,96564.19
2022-09-17T15:19:36.254Z,96566.59
2022-09-17T15:22:10.549Z,96573.50
2022-09-17T15:24:42.170Z,96563.22
2022-09-17T15:27:14.387Z,96564.53
2022-09-17T15:29:45.669Z,96569.25
2022-09-17T15:32:14.328Z,96572.25
2022-09-17T15:34:42.996Z,96564.91
2022-09-17T15:37:20.680Z,96560.16
2022-09-17T15:39:51.550Z,96563.25
2022-09-17T15:42:21.856Z,96570.53
2022-09-17T15:44:50.114Z,96569.56
2022-09-17T15:47:38.923Z,96575.81
2022-09-17T15:50:18.961Z,96569.47
2022-09-17T15:52:49.371Z,96575.88
2022-09-17T15:55:36.411Z,96576.81
2022-09-17T15:58:06.772Z,96585.00
2022-09-17T16:00:35.335Z,96582.84
2022-09-17T16:03:36.688Z,96592.47
2022-09-17T16:06:05.046Z,96598.59
2022-09-17T16:08:36.262Z,96596.94
2022-09-17T16:11:04.421Z,96597.78
2022-09-17T16:13:32.636Z,96598.53
2022-09-17T16:16:00.974Z,96599.47
2022-09-17T16:18:29.212Z,96606.94
2022-09-17T16:20:57.326Z,96607.16
2022-09-17T16:23:25.781Z,96603.31
2022-09-17T16:25:55.359Z,96610.56
2022-09-17T16:28:23.568Z,96603.81
2022-09-17T16:30:51.775Z,96618.44
2022-09-17T16:33:20.340Z,96605.19
2022-09-17T16:35:48.567Z,96591.81
2022-09-17T16:38:16.758Z,96605.13
2022-09-17T16:40:47.224Z,96592.34
2022-09-17T16:43:16.873Z,96603.53
2022-09-17T16:45:45.359Z,96609.56
2022-09-17T16:48:14.437Z,96606.50
2022-09-17T16:50:43.104Z,96613.38
2022-09-17T16:53:11.450Z,96628.84
2022-09-17T16:55:40.034Z,96617.38
2022-09-17T16:58:08.300Z,96627.59
2022-09-17T17:00:38.191Z,96634.28
2022-09-17T17:03:06.885Z,96637.09
2022-09-17T17:05:37.956Z,96636.84
2022-09-17T17:08:06.992Z,96627.53
2022-09-17T17:10:35.493Z,96643.09
2022-09-17T17:13:03.696Z,96644.28
2022-09-17T17:15:31.999Z,96635.41
2022-09-17T17:18:01.649Z,96638.72
2022-09-17T17:20:32.053Z,96639.09
2022-09-17T17:23:00.291Z,96649.22
2022-09-17T17:25:28.678Z,96649.47
2022-09-17T17:27:56.948Z,96648.13
2022-09-17T17:30:25.522Z,96653.00
2022-09-17T17:32:54.250Z,96659.44
2022-09-17T17:35:24.887Z,96670.22
2022-09-17T17:37:53.058Z,96675.13
2022-09-17T17:40:21.334Z,96672.69
2022-09-17T17:42:52.942Z,96673.69
2022-09-17T17:45:21.247Z,96676.56
2022-09-17T17:47:49.576Z,96671.66
2022-09-17T17:50:17.970Z,96684.00
2022-09-17T17:52:48.723Z,96686.66
2022-09-17T17:55:17.309Z,96691.75
2022-09-17T17:57:45.512Z,96690.69
2022-09-17T18:00:14.884Z,96687.56
2022-09-17T18:02:43.484Z,96694.81
2022-09-17T18:05:12.353Z,96698.94
2022-09-17T18:07:40.797Z,96688.63
2022-09-17T18:10:11.141Z,96699.56
2022-09-17T18:12:39.395Z,96702.16
2022-09-17T18:15:08.684Z,96704.84
2022-09-17T18:17:36.913Z,96712.91
2022-09-17T18:20:06.214Z,96725.44
2022-09-17T18:22:34.497Z,96722.09
2022-09-17T18:25:02.695Z,96730.84
2022-09-17T18:27:32.270Z,96730.72
2022-09-17T18:30:00.738Z,96737.31
2022-09-17T18:32:29.221Z,96743.50
2022-09-17T18:34:57.448Z,96753.94
2022-09-17T18:37:26.021Z,96751.78
2022-09-17T18:39:59.116Z,96754.25
2022-09-17T18:42:28.030Z,96755.47
2022-09-17T18:44:57.582Z,96749.06
2022-09-17T18:47:26.120Z,96756.06
2022-09-17T18:49:54.691Z,96763.03
2022-09-17T18:52:22.983Z,96754.00
2022-09-17T18:54:51.347Z,96757.16
2022-09-17T18:57:19.613Z,96758.19
2022-09-17T18:59:47.850Z,96764.31
2022-09-17T19:02:17.447Z,96765.63
2022-09-17T19:04:45.823Z,96750.25
2022-09-17T19:07:14.064Z,96766.06
2022-09-17T19:09:42.242Z,96757.66
2022-09-17T19:12:10.615Z,96754.31
2022-09-17T19:14:38.758Z,96760.97
2022-09-17T19:17:06.980Z,96756.22
2022-09-17T19:19:36.502Z,96758.94
2022-09-17T19:22:07.735Z,96764.78
2022-09-17T19:24:36.186Z,96761.84
2022-09-17T19:27:04.441Z,96775.72
2022-09-17T19:29:32.643Z,96774.78
2022-09-17T19:32:00.881Z,96786.06
2022-09-17T19:34:29.180Z,96788.38
2022-09-17T19:36:58.779Z,96800.81
2022-09-17T19:39:26.983Z,96805.03
2022-09-17T19:41:55.150Z,96801.19
2022-09-17T19:44:23.939Z,96804.28
2022-09-17T19:46:53.223Z,96807.84
2022-09-17T19:49:22.421Z,96814.69
2022-09-17T19:51:50.736Z,96814.19
2022-09-17T19:54:20.326Z,96811.13
2022-09-17T19:56:48.616Z,96806.56
2022-09-17T19:59:17.287Z,96812.16
2022-09-17T20:01:49.283Z,96802.78
2022-09-17T20:04:18.157Z,96802.53
2022-09-17T20:06:46.394Z,96805.06
2022-09-17T20:09:14.508Z,96800.66
2022-09-17T20:11:44.078Z,96806.72
2022-09-17T20:14:12.891Z,96800.63
2022-09-17T20:16:41.456Z,96796.44
2022-09-17T20:19:15.383Z,96789.63
2022-09-17T20:21:43.895Z,96799.47
2022-09-17T20:24:12.495Z,96802.13
2022-09-17T20:26:40.728Z,96797.81
2022-09-17T20:29:10.873Z,96795.22
2022-09-17T20:31:39.744Z,96808.50
2022-09-17T20:34:08.015Z,96807.72
2022-09-17T20:36:36.962Z,96818.84
2022-09-17T20:39:18.207Z,96825.66
2022-09-17T20:41:50.455Z,96820.91
2022-09-17T20:44:20.818Z,96835.56
2022-09-17T20:46:49.220Z,96833.16
2022-09-17T20:49:17.529Z,96848.44
2022-09-17T20:51:45.694Z,96834.16
2022-09-17T20:54:14.236Z,96847.41
2022-09-17T20:56:42.409Z,96844.69
2022-09-17T20:59:15.303Z,96853.69
2022-09-17T21:01:46.731Z,96862.75
2022-09-17T21:04:16.519Z,96868.28
2022-09-17T21:06:45.388Z,96865.31
2022-09-17T21:09:16.927Z,96878.03
2022-09-17T21:11:46.280Z,96882.72
2022-09-17T21:14:15.800Z,96874.97
2022-09-17T21:16:46.675Z,96887.41
2022-09-17T21:19:16.346Z,96882.69
2022-09-17T21:21:44.740Z,96876.56
2022-09-17T21:24:13.237Z,96883.31
2022-09-17T21:26:41.570Z,96885.91
2022-09-17T21:29:09.792Z,96888.63
2022-09-17T21:31:38.387Z,96890.44
2022-09-17T21:34:09.303Z,96881.63
2022-09-17T21:36:38.488Z,96878.47
2022-09-17T21:39:08.324Z,96873.09
2022-09-17T21:41:40.088Z,96876.91
2022-09-17T21:44:11.286Z,96870.88
2022-09-17T21:46:39.678Z,96860.34
2022-09-17T21:49:09.480Z,96864.19
2022-09-17T21:51:38.794Z,96875.75
2022-09-17T21:54:08.571Z,96874.38
2022-09-17T21:56:37.316Z,96872.91
2022-09-17T21:59:08.766Z,96889.63
2022-09-17T22:01:39.728Z,96900.13
2022-09-17T22:04:10.965Z,96893.50
2022-09-17T22:06:39.600Z,96894.63
2022-09-17T22:09:12.210Z,96899.94
2022-09-17T22:11:40.477Z,96897.47
2022-09-17T22:14:12.847Z,96907.84
2022-09-17T22:16:43.978Z,96910.44
2022-09-17T22:19:15.126Z,96914.72
2022-09-17T22:21:46.708Z,96921.66
2022-09-17T22:24:16.063Z,96916.53
2022-09-17T22:26:45.880Z,96914.81
2022-09-17T22:29:15.742Z,96917.38
2022-09-17T22:31:44.328Z,96909.59
2022-09-17T22:34:15.336Z,96908.88
2022-09-17T22:36:43.636Z,96907.22
2022-09-17T22:39:12.192Z,96899.53
2022-09-17T22:41:45.247Z,96902.19
2022-09-17T22:44:15.200Z,96902.16
2022-09-17T22:46:43.898Z,96899.63
2022-09-17T22:49:13.673Z,96896.22
2022-09-17T22:51:42.128Z,96905.66
2022-09-17T22:54:12.686Z,96897.94
2022-09-17T22:56:42.001Z,96911.72
2022-09-17T22:59:10.520Z,96910.94
2022-09-17T23:01:40.541Z,96899.00
2022-09-17T23:04:08.800Z,96910.19
2022-09-17T23:06:42.176Z,96899.91
2022-09-17T23:09:10.758Z,96899.91
2022-09-17T23:11:40.090Z,96899.06
2022-09-17T23:14:12.099Z,96894.81
2022-09-17T23:16:42.614Z,96905.16
2022-09-17T23:19:11.541Z,96912.91
2022-09-17T23:21:41.370Z,96906.91
2022-09-17T23:24:11.532Z,96913.75
2022-09-17T23:26:39.836Z,96913.78
2022-09-17T23:29:08.191Z,96904.34
2022-09-17T23:31:36.414Z,96902.66
2022-09-17T23:34:05.552Z,96900.94
2022-09-17T23:36:36.835Z,96904.41
2022-09-17T23:39:07.597Z,96907.84
2022-09-17T23:41:37.767Z,96912.16
2022-09-17T23:44:14.503Z,96912.16
2022-09-17T23:46:44.347Z,96916.44
2022-09-17T23:49:14.403Z,96934.44
2022-09-17T23:51:42.985Z,96925.03
2022-09-17T23:54:12.602Z,96926.75
2022-09-17T23:56:40.754Z,96922.47
2022-09-17T23:59:08.962Z,96925.91
